Orel, Russia
Current Conditions -  °F | °C
As of 6:00 PM on Friday 28 Nov 2014 (Local Time) from UUOK Reporting Station
Overcast Overcast  
Wind Chill: 19°   Ceiling: 3000
Heat Index: 25°   Visibility: 6mi
Dew Point: 18°   Wind: 4mph
Humidity: 74%   Direction: 30°NNE
Pressure: 30.45"   Gusts: NA
Location:  52.99°N, 36.09°E
Report Text: UUOK 281500Z 03002MPS 9999 OVC030 M04/M08 Q1031 NOSIG RMK12420150
Loading
Personal Weather Stations






























Interactive Weather Map New forecast layout! Learn more

10-Day Weather Forecast

Advertisements
Track Severe Weather on mobile